createdAt,value
2023-05-02T00:01:56.142Z,10.26
2023-05-02T00:04:58.750Z,10.27
2023-05-02T00:08:01.299Z,10.11
2023-05-02T00:11:03.989Z,10.23
2023-05-02T00:14:06.338Z,10.33
2023-05-02T00:17:08.661Z,10.32
2023-05-02T00:20:12.274Z,10.36
2023-05-02T00:23:14.501Z,10.55
2023-05-02T00:26:16.790Z,10.77
2023-05-02T00:29:19.127Z,10.89
2023-05-02T00:32:21.422Z,11.10
2023-05-02T00:35:23.690Z,11.37
2023-05-02T00:38:25.993Z,11.39
2023-05-02T00:41:28.298Z,11.59
2023-05-02T00:44:30.795Z,11.59
2023-05-02T00:47:33.576Z,11.48
2023-05-02T00:50:37.874Z,11.39
2023-05-02T00:53:41.520Z,11.35
2023-05-02T00:56:44.655Z,11.53
2023-05-02T00:59:47.492Z,11.55
2023-05-02T01:03:05.376Z,11.44
2023-05-02T01:06:30.087Z,11.44
2023-05-02T01:09:41.757Z,11.46
2023-05-02T01:12:54.359Z,11.42
2023-05-02T01:15:59.728Z,11.40
2023-05-02T01:19:05.932Z,11.40
2023-05-02T01:22:11.333Z,11.52
2023-05-02T01:25:37.812Z,11.62
2023-05-02T01:28:58.535Z,11.49
2023-05-02T01:32:03.252Z,11.47
2023-05-02T01:35:06.995Z,11.55
2023-05-02T01:38:13.873Z,11.58
2023-05-02T01:41:16.516Z,11.58
2023-05-02T01:44:21.805Z,11.47
2023-05-02T01:47:25.640Z,11.47
2023-05-02T01:50:29.200Z,11.41
2023-05-02T01:53:35.236Z,11.40
2023-05-02T01:56:39.657Z,11.34
2023-05-02T01:59:44.584Z,11.20
2023-05-02T02:02:48.992Z,11.04
2023-05-02T02:05:53.097Z,10.90
2023-05-02T02:08:55.687Z,10.83
2023-05-02T02:12:06.159Z,10.80
2023-05-02T02:15:28.594Z,10.63
2023-05-02T02:18:37.368Z,10.47
2023-05-02T02:21:42.509Z,10.55
2023-05-02T02:24:47.623Z,10.40
2023-05-02T02:27:50.785Z,10.32
2023-05-02T02:30:53.418Z,10.39
2023-05-02T02:33:56.168Z,10.13
2023-05-02T02:37:10.434Z,9.97
2023-05-02T02:40:31.839Z,9.92
2023-05-02T02:43:44.145Z,9.99
2023-05-02T02:47:24.775Z,9.96
2023-05-02T02:50:38.297Z,9.93
2023-05-02T02:53:58.338Z,9.83
2023-05-02T02:57:18.875Z,9.90
2023-05-02T03:00:25.043Z,9.81
2023-05-02T03:03:29.344Z,9.89
2023-05-02T03:06:32.688Z,9.81
2023-05-02T03:09:46.477Z,9.74
2023-05-02T03:12:56.528Z,9.67
2023-05-02T03:16:31.456Z,9.61
2023-05-02T03:19:35.011Z,9.56
2023-05-02T03:22:37.588Z,9.44
2023-05-02T03:25:39.858Z,9.21
2023-05-02T03:28:46.959Z,9.33
2023-05-02T03:31:54.584Z,9.24
2023-05-02T03:34:58.802Z,8.97
2023-05-02T03:38:06.923Z,8.89
2023-05-02T03:41:09.598Z,8.59
2023-05-02T03:44:12.240Z,8.66
2023-05-02T03:47:14.723Z,8.69
2023-05-02T03:50:19.184Z,8.64
2023-05-02T03:53:23.699Z,8.87
2023-05-02T03:56:31.469Z,8.96
2023-05-02T03:59:48.368Z,8.91
2023-05-02T04:03:03.411Z,8.89
2023-05-02T04:06:07.584Z,8.92
2023-05-02T04:09:10.481Z,9.19
2023-05-02T04:12:22.674Z,9.49
2023-05-02T04:15:27.234Z,9.82
2023-05-02T04:18:31.049Z,9.77
2023-05-02T04:21:37.504Z,9.85
2023-05-02T04:24:41.498Z,9.90
2023-05-02T04:27:44.354Z,9.81
2023-05-02T04:30:50.534Z,9.87
2023-05-02T04:33:57.263Z,9.91
2023-05-02T04:37:02.298Z,9.82
2023-05-02T04:40:06.707Z,9.70
2023-05-02T04:43:09.190Z,9.52
2023-05-02T04:46:18.855Z,9.71
2023-05-02T04:49:21.668Z,10.00
2023-05-02T04:52:24.565Z,10.05
2023-05-02T04:55:26.966Z,10.33
2023-05-02T04:58:29.394Z,10.78
2023-05-02T05:01:38.330Z,11.24
2023-05-02T05:04:42.586Z,11.42
2023-05-02T05:07:45.534Z,11.52
2023-05-02T05:10:48.570Z,11.66
2023-05-02T05:13:50.994Z,11.83
2023-05-02T05:16:54.156Z,11.93
2023-05-02T05:19:57.801Z,12.00
2023-05-02T05:23:00.308Z,12.19
2023-05-02T05:26:11.814Z,12.20
2023-05-02T05:29:18.268Z,12.46
2023-05-02T05:32:22.029Z,12.44
2023-05-02T05:35:26.363Z,12.57
2023-05-02T05:38:28.997Z,12.77
2023-05-02T05:41:33.207Z,12.97
2023-05-02T05:44:39.864Z,13.02
2023-05-02T05:47:43.471Z,13.24
2023-05-02T05:50:46.556Z,13.38
2023-05-02T05:53:48.972Z,13.62
2023-05-02T05:56:51.855Z,13.71
2023-05-02T05:59:56.210Z,13.82
2023-05-02T06:02:59.516Z,13.67
2023-05-02T06:06:07.884Z,13.79
2023-05-02T06:09:13.260Z,13.76
2023-05-02T06:12:16.503Z,13.86
2023-05-02T06:15:25.480Z,14.01
2023-05-02T06:18:28.323Z,14.14
2023-05-02T06:21:31.449Z,14.35
2023-05-02T06:24:33.764Z,14.64
2023-05-02T06:27:36.241Z,14.84
2023-05-02T06:30:38.581Z,14.84
2023-05-02T06:33:41.345Z,14.70
2023-05-02T06:36:43.667Z,15.03
2023-05-02T06:39:45.937Z,15.25
2023-05-02T06:42:48.221Z,15.28
2023-05-02T06:45:54.591Z,15.57
2023-05-02T06:48:56.964Z,15.63
2023-05-02T06:51:59.269Z,15.82
2023-05-02T06:55:01.668Z,15.94
2023-05-02T06:58:04.050Z,16.30
2023-05-02T07:01:06.646Z,16.61
2023-05-02T07:04:09.050Z,16.64
2023-05-02T07:07:11.379Z,16.74
2023-05-02T07:10:13.676Z,17.09
2023-05-02T07:13:15.967Z,16.93
2023-05-02T07:16:18.319Z,17.90
2023-05-02T07:19:20.669Z,18.74
2023-05-02T07:22:23.024Z,19.35
2023-05-02T07:25:25.483Z,19.56
2023-05-02T07:28:27.801Z,20.19
2023-05-02T07:31:30.166Z,20.62
2023-05-02T07:34:32.598Z,20.20
2023-05-02T07:37:35.470Z,20.05
2023-05-02T07:40:38.339Z,21.13
2023-05-02T07:43:44.331Z,21.40
2023-05-02T07:46:47.532Z,21.87
2023-05-02T07:49:54.359Z,21.34
2023-05-02T07:52:56.726Z,22.72
2023-05-02T07:55:58.968Z,22.52
2023-05-02T07:59:01.786Z,23.14
2023-05-02T08:02:05.661Z,22.60
2023-05-02T08:05:08.366Z,22.78
2023-05-02T08:08:11.069Z,21.87
2023-05-02T08:11:13.332Z,21.19
2023-05-02T08:14:16.546Z,21.48
2023-05-02T08:17:18.876Z,21.07
2023-05-02T08:20:22.339Z,20.48
2023-05-02T08:23:24.708Z,20.02
2023-05-02T08:26:28.023Z,19.58
2023-05-02T08:29:31.357Z,19.41
2023-05-02T08:32:33.765Z,20.28
2023-05-02T08:35:36.529Z,21.75
2023-05-02T08:38:38.893Z,23.52
2023-05-02T08:41:41.264Z,25.20
2023-05-02T08:44:44.158Z,26.94
2023-05-02T08:47:47.858Z,26.38
2023-05-02T08:50:52.661Z,26.93
2023-05-02T08:53:55.767Z,25.91
2023-05-02T08:56:59.930Z,27.41
2023-05-02T09:00:02.545Z,25.53
2023-05-02T09:03:29.271Z,23.63
2023-05-02T09:06:33.010Z,23.93
2023-05-02T09:09:35.687Z,23.21
2023-05-02T09:12:38.911Z,24.36
2023-05-02T09:15:41.229Z,24.11
2023-05-02T09:18:45.619Z,23.06
2023-05-02T09:21:47.991Z,22.84
2023-05-02T09:24:57.601Z,23.11
2023-05-02T09:28:01.895Z,25.15
2023-05-02T09:31:12.256Z,25.63
2023-05-02T09:34:17.228Z,26.66
2023-05-02T09:37:35.726Z,26.66
2023-05-02T09:40:38.132Z,25.29
2023-05-02T09:43:41.308Z,24.15
2023-05-02T09:46:45.771Z,23.27
2023-05-02T09:49:49.738Z,22.39
2023-05-02T09:53:06.270Z,22.43
2023-05-02T09:56:08.618Z,23.34
2023-05-02T09:59:17.254Z,23.98
2023-05-02T10:02:21.875Z,26.90
2023-05-02T10:05:24.974Z,28.89
2023-05-02T10:08:28.650Z,29.76
2023-05-02T10:11:32.597Z,27.02
2023-05-02T10:14:40.133Z,26.38
2023-05-02T10:17:48.418Z,26.16
2023-05-02T10:21:06.313Z,26.06
2023-05-02T10:24:09.227Z,25.05
2023-05-02T10:27:11.726Z,25.55
2023-05-02T10:30:14.596Z,24.76
2023-05-02T10:33:19.305Z,27.07
2023-05-02T10:36:23.695Z,28.60
2023-05-02T10:39:29.537Z,29.91
2023-05-02T10:42:35.606Z,27.27
2023-05-02T10:45:37.911Z,26.69
2023-05-02T10:48:40.473Z,28.96
2023-05-02T10:51:43.617Z,29.51
2023-05-02T10:54:46.290Z,30.02
2023-05-02T10:57:58.431Z,30.20
2023-05-02T11:01:29.216Z,31.44
2023-05-02T11:05:04.603Z,31.56
2023-05-02T11:08:18.649Z,33.46
2023-05-02T11:11:42.640Z,33.67
2023-05-02T11:14:47.592Z,32.25
2023-05-02T11:18:06.571Z,31.42
2023-05-02T11:21:29.580Z,31.87
2023-05-02T11:24:44.847Z,33.38
2023-05-02T11:27:49.298Z,32.91
2023-05-02T11:30:51.748Z,34.21
2023-05-02T11:33:57.719Z,32.62
2023-05-02T11:37:00.279Z,30.09
2023-05-02T11:40:13.243Z,30.17
2023-05-02T11:43:18.458Z,31.23
2023-05-02T11:46:21.190Z,31.59
2023-05-02T12:15:59.443Z,25.54
2023-05-02T12:19:02.130Z,25.43
2023-05-02T12:22:05.632Z,25.44
2023-05-02T12:25:08.905Z,25.10
2023-05-02T12:28:11.344Z,25.56
2023-05-02T12:31:13.763Z,26.71
2023-05-02T12:34:32.598Z,27.88
2023-05-02T12:37:34.893Z,30.14
2023-05-02T12:40:37.680Z,29.83
2023-05-02T12:43:51.241Z,28.30
2023-05-02T12:47:02.980Z,26.79
2023-05-02T12:50:05.693Z,26.50
2023-05-02T12:53:08.260Z,25.88
2023-05-02T12:56:11.059Z,25.63
2023-05-02T12:59:30.485Z,25.55
2023-05-02T13:02:33.199Z,25.09
2023-05-02T13:05:36.984Z,24.84
2023-05-02T13:08:39.499Z,24.47
2023-05-02T13:11:42.624Z,24.57
2023-05-02T13:14:45.329Z,24.18
2023-05-02T13:17:48.784Z,23.88
2023-05-02T13:20:51.319Z,23.98
2023-05-02T13:23:55.387Z,24.12
2023-05-02T13:26:57.675Z,23.67
2023-05-02T13:30:06.471Z,23.55
2023-05-02T13:33:10.950Z,23.41
2023-05-02T13:36:13.343Z,23.40
2023-05-02T13:39:15.601Z,23.33
2023-05-02T13:42:18.263Z,23.37
2023-05-02T13:45:21.156Z,23.25
2023-05-02T13:48:23.444Z,22.84
2023-05-02T13:51:25.718Z,22.75
2023-05-02T13:54:28.232Z,22.86
2023-05-02T13:57:30.795Z,22.57
2023-05-02T14:00:33.296Z,22.75
2023-05-02T14:03:36.009Z,22.74
2023-05-02T14:06:38.724Z,22.62
2023-05-02T14:09:41.213Z,22.74
2023-05-02T14:12:43.506Z,23.02
2023-05-02T14:15:45.947Z,23.21
2023-05-02T14:18:50.131Z,23.05
2023-05-02T14:21:52.455Z,22.97
2023-05-02T14:24:54.782Z,22.76
2023-05-02T14:27:57.096Z,22.89
2023-05-02T14:30:59.440Z,23.04
2023-05-02T14:34:01.936Z,23.12
2023-05-02T14:37:04.249Z,23.15
2023-05-02T14:40:07.305Z,23.18
2023-05-02T14:43:09.781Z,23.05
2023-05-02T14:46:12.187Z,23.02
2023-05-02T14:49:14.490Z,23.09
2023-05-02T14:52:16.859Z,23.19
2023-05-02T14:55:19.356Z,23.29
2023-05-02T14:58:21.809Z,23.07
2023-05-02T15:01:24.531Z,23.10
2023-05-02T15:04:27.945Z,22.91
2023-05-02T15:07:30.812Z,22.74
2023-05-02T15:10:37.212Z,22.66
2023-05-02T15:13:39.812Z,22.66
2023-05-02T15:16:42.591Z,22.81
2023-05-02T15:19:45.090Z,22.55
2023-05-02T15:22:47.453Z,22.61
2023-05-02T15:25:49.913Z,22.56
2023-05-02T15:28:52.297Z,22.22
2023-05-02T15:31:54.852Z,22.09
2023-05-02T15:34:57.205Z,21.94
2023-05-02T15:37:59.786Z,22.29
2023-05-02T15:41:02.038Z,22.59
2023-05-02T15:44:04.695Z,22.34
2023-05-02T15:47:06.996Z,22.53
2023-05-02T15:50:13.597Z,22.51
2023-05-02T15:53:17.225Z,22.47
2023-05-02T15:56:21.649Z,22.26
2023-05-02T15:59:24.124Z,22.25
2023-05-02T16:02:26.390Z,22.14
2023-05-02T16:05:28.909Z,22.09
2023-05-02T16:08:31.459Z,21.88
2023-05-02T16:11:34.321Z,21.70
2023-05-02T16:14:37.093Z,21.76
2023-05-02T16:17:39.415Z,21.76
2023-05-02T16:20:42.127Z,21.67
2023-05-02T16:23:44.504Z,21.69
2023-05-02T16:26:46.774Z,21.58
2023-05-02T16:29:49.135Z,21.51
2023-05-02T16:32:51.742Z,21.38
2023-05-02T16:36:01.825Z,21.39
2023-05-02T16:39:04.319Z,21.33
2023-05-02T16:42:06.662Z,21.25
2023-05-02T16:45:09.366Z,21.16
2023-05-02T16:48:11.980Z,21.16
2023-05-02T16:51:14.754Z,21.03
2023-05-02T16:54:20.465Z,21.06
2023-05-02T16:57:23.327Z,21.01
2023-05-02T17:00:25.625Z,20.91
2023-05-02T17:03:29.519Z,20.84
2023-05-02T17:06:32.343Z,20.91
2023-05-02T17:09:37.003Z,20.66
2023-05-02T17:12:39.356Z,20.48
2023-05-02T17:15:42.048Z,20.44
2023-05-02T17:18:44.664Z,20.33
2023-05-02T17:21:47.162Z,20.23
2023-05-02T17:24:52.879Z,20.02
2023-05-02T17:27:55.734Z,19.81
2023-05-02T17:30:59.302Z,19.61
2023-05-02T17:34:01.700Z,19.49
2023-05-02T17:37:03.988Z,19.38
2023-05-02T17:40:07.068Z,19.26
2023-05-02T17:43:09.763Z,19.08
2023-05-02T17:46:12.126Z,19.04
2023-05-02T17:49:14.484Z,18.98
2023-05-02T17:52:17.452Z,18.98
2023-05-02T17:55:20.013Z,18.92
2023-05-02T17:58:22.361Z,18.82
2023-05-02T18:01:24.751Z,18.64
2023-05-02T18:04:27.081Z,18.39
2023-05-02T18:07:30.263Z,18.25
2023-05-02T18:10:42.059Z,18.18
2023-05-02T18:13:45.045Z,18.19
2023-05-02T18:16:48.819Z,18.27
2023-05-02T18:19:51.212Z,18.45
2023-05-02T18:22:57.260Z,18.35
2023-05-02T18:25:59.743Z,18.26
2023-05-02T18:29:02.508Z,18.34
2023-05-02T18:32:08.017Z,18.23
2023-05-02T18:35:13.094Z,18.46
2023-05-02T18:38:16.169Z,18.55
2023-05-02T18:41:18.619Z,18.56
2023-05-02T18:44:21.195Z,18.58
2023-05-02T18:47:24.739Z,18.42
2023-05-02T18:50:27.931Z,18.38
2023-05-02T18:53:31.834Z,18.20
2023-05-02T18:56:34.171Z,18.02
2023-05-02T18:59:40.300Z,17.89
2023-05-02T19:02:54.885Z,17.88
2023-05-02T19:05:57.769Z,17.77
2023-05-02T19:09:06.209Z,17.84
2023-05-02T19:12:08.618Z,17.91
2023-05-02T19:15:11.711Z,17.78
2023-05-02T19:18:14.475Z,17.83
2023-05-02T19:21:17.046Z,17.83
2023-05-02T19:24:21.228Z,17.78
2023-05-02T19:27:24.215Z,17.75
2023-05-02T19:30:29.383Z,17.63
2023-05-02T19:33:37.697Z,17.45
2023-05-02T19:36:40.021Z,17.48
2023-05-02T19:39:45.836Z,17.46
2023-05-02T19:42:48.262Z,17.31
2023-05-02T19:45:50.982Z,17.19
2023-05-02T19:48:53.348Z,17.23
2023-05-02T19:51:55.944Z,17.34
2023-05-02T19:54:58.670Z,17.24
2023-05-02T19:58:01.992Z,17.11
2023-05-02T20:01:04.417Z,17.06
2023-05-02T20:04:06.859Z,16.91
2023-05-02T20:07:09.354Z,16.55
2023-05-02T20:10:11.967Z,16.50
2023-05-02T20:13:14.519Z,16.47
2023-05-02T20:16:16.977Z,16.37
2023-05-02T20:19:20.696Z,16.47
2023-05-02T20:22:25.826Z,16.35
2023-05-02T20:25:28.663Z,16.43
2023-05-02T20:28:30.978Z,16.50
2023-05-02T20:31:33.559Z,16.35
2023-05-02T20:34:35.919Z,16.41
2023-05-02T20:37:38.422Z,16.23
2023-05-02T20:40:42.728Z,16.35
2023-05-02T20:43:46.496Z,16.35
2023-05-02T20:46:48.925Z,16.21
2023-05-02T20:49:51.272Z,16.32
2023-05-02T20:52:54.416Z,16.02
2023-05-02T20:55:56.734Z,16.02
2023-05-02T20:58:59.047Z,16.09
2023-05-02T21:02:01.812Z,16.00
2023-05-02T21:05:04.361Z,15.91
2023-05-02T21:08:06.697Z,15.77
2023-05-02T21:11:16.074Z,15.68
2023-05-02T21:14:18.616Z,15.74
2023-05-02T21:17:21.909Z,15.82
2023-05-02T21:20:24.201Z,15.88
2023-05-02T21:23:26.896Z,15.78
2023-05-02T21:26:29.490Z,15.83
2023-05-02T21:29:31.824Z,15.76
2023-05-02T21:32:34.165Z,15.84
2023-05-02T21:35:37.346Z,15.85
2023-05-02T21:38:39.718Z,15.73
2023-05-02T21:41:42.072Z,15.70
2023-05-02T21:44:44.380Z,15.66
2023-05-02T21:47:46.757Z,15.65
2023-05-02T21:50:49.295Z,15.63
2023-05-02T21:53:52.937Z,15.48
2023-05-02T21:56:55.409Z,15.22
2023-05-02T21:59:57.718Z,15.34
2023-05-02T22:03:07.787Z,15.32
2023-05-02T22:06:11.199Z,15.19
2023-05-02T22:09:13.708Z,15.18
2023-05-02T22:12:16.305Z,15.09
2023-05-02T22:15:18.607Z,14.99
2023-05-02T22:18:21.037Z,14.94
2023-05-02T22:21:23.447Z,14.98
2023-05-02T22:24:26.377Z,14.91
2023-05-02T22:27:28.881Z,14.92
2023-05-02T22:30:31.206Z,14.82
2023-05-02T22:33:33.619Z,14.75
2023-05-02T22:36:36.160Z,14.87
2023-05-02T22:39:38.465Z,14.71
2023-05-02T22:42:40.795Z,14.59
2023-05-02T22:45:43.117Z,14.28
2023-05-02T22:48:45.616Z,14.07
2023-05-02T22:51:48.166Z,14.23
2023-05-02T22:54:50.552Z,14.33
2023-05-02T22:57:52.923Z,14.32
2023-05-02T23:00:55.355Z,14.34
2023-05-02T23:03:57.959Z,14.35
2023-05-02T23:07:00.301Z,14.46
2023-05-02T23:10:02.892Z,14.47
2023-05-02T23:13:06.025Z,14.54
2023-05-02T23:16:08.447Z,14.57
2023-05-02T23:19:11.601Z,14.59
2023-05-02T23:22:13.917Z,14.51
2023-05-02T23:25:16.257Z,14.42
2023-05-02T23:28:20.635Z,14.29
2023-05-02T23:31:23.131Z,14.32
2023-05-02T23:34:26.144Z,14.41
2023-05-02T23:37:28.542Z,14.38
2023-05-02T23:40:31.629Z,14.34
2023-05-02T23:43:33.958Z,14.31
2023-05-02T23:46:36.321Z,14.34
2023-05-02T23:49:38.761Z,14.28
2023-05-02T23:52:41.048Z,14.36
2023-05-02T23:55:43.382Z,14.30
2023-05-02T23:58:46.114Z,14.31
